sensor_id;sensor_type;location;lat;lon;timestamp;temperature;humidity
65692;DHT22;52411;52.716;6.696;2022-12-18T00:00:40;-2.70;99.90
65692;DHT22;52411;52.716;6.696;2022-12-18T00:03:06;-2.80;99.90
65692;DHT22;52411;52.716;6.696;2022-12-18T00:05:32;-2.80;99.90
65692;DHT22;52411;52.716;6.696;2022-12-18T00:07:58;-2.80;99.90
65692;DHT22;52411;52.716;6.696;2022-12-18T00:10:23;-2.80;99.90
65692;DHT22;52411;52.716;6.696;2022-12-18T00:12:49;-2.70;99.90
65692;DHT22;52411;52.716;6.696;2022-12-18T00:15:15;-2.70;99.90
65692;DHT22;52411;52.716;6.696;2022-12-18T00:17:40;-2.60;99.90
65692;DHT22;52411;52.716;6.696;2022-12-18T00:20:06;-2.60;99.90
65692;DHT22;52411;52.716;6.696;2022-12-18T00:22:32;-2.60;99.90
65692;DHT22;52411;52.716;6.696;2022-12-18T00:24:58;-2.60;99.90
65692;DHT22;52411;52.716;6.696;2022-12-18T00:27:23;-2.60;99.90
65692;DHT22;52411;52.716;6.696;2022-12-18T00:29:49;-2.70;99.90
65692;DHT22;52411;52.716;6.696;2022-12-18T00:32:14;-2.80;99.90
65692;DHT22;52411;52.716;6.696;2022-12-18T00:34:40;-2.90;99.90
65692;DHT22;52411;52.716;6.696;2022-12-18T00:37:06;-3.00;99.90
65692;DHT22;52411;52.716;6.696;2022-12-18T00:39:31;-3.00;99.90
65692;DHT22;52411;52.716;6.696;2022-12-18T00:41:57;-3.10;99.90
65692;DHT22;52411;52.716;6.696;2022-12-18T00:44:41;-3.10;99.90
65692;DHT22;52411;52.716;6.696;2022-12-18T00:47:06;-3.30;99.90
65692;DHT22;52411;52.716;6.696;2022-12-18T00:49:32;-3.30;99.90
65692;DHT22;52411;52.716;6.696;2022-12-18T00:51:58;-3.40;99.90
65692;DHT22;52411;52.716;6.696;2022-12-18T00:54:23;-3.50;99.90
65692;DHT22;52411;52.716;6.696;2022-12-18T00:56:49;-3.50;99.90
65692;DHT22;52411;52.716;6.696;2022-12-18T00:59:15;-3.50;99.90
65692;DHT22;52411;52.716;6.696;2022-12-18T01:01:41;-3.60;99.90
65692;DHT22;52411;52.716;6.696;2022-12-18T01:04:07;-3.50;99.90
65692;DHT22;52411;52.716;6.696;2022-12-18T01:06:35;-3.50;99.90
65692;DHT22;52411;52.716;6.696;2022-12-18T01:09:00;-3.50;99.90
65692;DHT22;52411;52.716;6.696;2022-12-18T01:11:26;-3.60;99.90
65692;DHT22;52411;52.716;6.696;2022-12-18T01:13:53;-3.70;99.90
65692;DHT22;52411;52.716;6.696;2022-12-18T01:16:19;-3.80;99.90
65692;DHT22;52411;52.716;6.696;2022-12-18T01:18:45;-3.90;99.90
65692;DHT22;52411;52.716;6.696;2022-12-18T01:21:13;-4.00;99.90
65692;DHT22;52411;52.716;6.696;2022-12-18T01:23:39;-4.00;99.90
65692;DHT22;52411;52.716;6.696;2022-12-18T01:26:10;-4.10;99.90
65692;DHT22;52411;52.716;6.696;2022-12-18T01:28:37;-4.20;99.90
65692;DHT22;52411;52.716;6.696;2022-12-18T01:31:26;-4.30;99.90
65692;DHT22;52411;52.716;6.696;2022-12-18T01:33:53;-4.30;99.90
65692;DHT22;52411;52.716;6.696;2022-12-18T01:36:22;-4.30;99.90
65692;DHT22;52411;52.716;6.696;2022-12-18T01:38:49;-4.40;99.90
65692;DHT22;52411;52.716;6.696;2022-12-18T01:41:16;-4.40;99.90
65692;DHT22;52411;52.716;6.696;2022-12-18T01:43:49;-4.50;99.90
65692;DHT22;52411;52.716;6.696;2022-12-18T01:46:16;-4.50;99.90
65692;DHT22;52411;52.716;6.696;2022-12-18T01:48:44;-4.50;99.90
65692;DHT22;52411;52.716;6.696;2022-12-18T01:51:11;-4.60;99.90
65692;DHT22;52411;52.716;6.696;2022-12-18T01:53:39;-4.60;99.90
65692;DHT22;52411;52.716;6.696;2022-12-18T01:56:06;-4.70;99.90
65692;DHT22;52411;52.716;6.696;2022-12-18T01:58:59;-4.70;99.90
65692;DHT22;52411;52.716;6.696;2022-12-18T02:01:26;-4.80;99.90
65692;DHT22;52411;52.716;6.696;2022-12-18T02:03:53;-4.80;99.90
65692;DHT22;52411;52.716;6.696;2022-12-18T02:06:34;-4.80;99.90
65692;DHT22;52411;52.716;6.696;2022-12-18T02:09:14;-4.80;99.90
65692;DHT22;52411;52.716;6.696;2022-12-18T02:11:58;-4.90;99.90
65692;DHT22;52411;52.716;6.696;2022-12-18T02:15:24;-4.80;99.90
65692;DHT22;52411;52.716;6.696;2022-12-18T02:17:46;-4.90;99.90
65692;DHT22;52411;52.716;6.696;2022-12-18T02:20:31;-5.00;99.90
65692;DHT22;52411;52.716;6.696;2022-12-18T02:28:25;-5.20;99.90
65692;DHT22;52411;52.716;6.696;2022-12-18T02:30:53;-5.20;99.90
65692;DHT22;52411;52.716;6.696;2022-12-18T02:33:21;-5.20;99.90
65692;DHT22;52411;52.716;6.696;2022-12-18T02:35:48;-5.30;99.90
65692;DHT22;52411;52.716;6.696;2022-12-18T02:38:16;-5.30;99.90
65692;DHT22;52411;52.716;6.696;2022-12-18T02:40:42;-5.20;99.90
65692;DHT22;52411;52.716;6.696;2022-12-18T02:43:14;-5.20;99.90
65692;DHT22;52411;52.716;6.696;2022-12-18T02:45:54;-5.20;99.90
65692;DHT22;52411;52.716;6.696;2022-12-18T02:48:24;-5.30;99.90
65692;DHT22;52411;52.716;6.696;2022-12-18T02:51:18;-5.40;99.90
65692;DHT22;52411;52.716;6.696;2022-12-18T02:53:53;-5.60;99.90
65692;DHT22;52411;52.716;6.696;2022-12-18T02:56:26;-5.60;99.90
65692;DHT22;52411;52.716;6.696;2022-12-18T03:01:30;-5.70;99.90
65692;DHT22;52411;52.716;6.696;2022-12-18T03:04:04;-5.70;99.90
65692;DHT22;52411;52.716;6.696;2022-12-18T03:06:39;-5.60;99.90
65692;DHT22;52411;52.716;6.696;2022-12-18T03:09:16;-5.60;99.90
65692;DHT22;52411;52.716;6.696;2022-12-18T03:11:46;-5.50;99.90
65692;DHT22;52411;52.716;6.696;2022-12-18T03:14:34;-5.50;99.90
65692;DHT22;52411;52.716;6.696;2022-12-18T03:17:03;-5.50;99.90
65692;DHT22;52411;52.716;6.696;2022-12-18T03:19:32;-5.50;99.90
65692;DHT22;52411;52.716;6.696;2022-12-18T03:22:00;-5.50;99.90
65692;DHT22;52411;52.716;6.696;2022-12-18T03:24:30;-5.50;99.90
65692;DHT22;52411;52.716;6.696;2022-12-18T03:27:00;-5.50;99.90
65692;DHT22;52411;52.716;6.696;2022-12-18T03:29:43;-5.50;99.90
65692;DHT22;52411;52.716;6.696;2022-12-18T03:32:16;-5.60;99.90
65692;DHT22;52411;52.716;6.696;2022-12-18T03:34:44;-5.70;99.90
65692;DHT22;52411;52.716;6.696;2022-12-18T03:37:13;-5.60;99.90
65692;DHT22;52411;52.716;6.696;2022-12-18T03:39:38;-5.70;99.90
65692;DHT22;52411;52.716;6.696;2022-12-18T03:42:08;-5.80;99.90
65692;DHT22;52411;52.716;6.696;2022-12-18T03:44:59;-5.90;99.90
65692;DHT22;52411;52.716;6.696;2022-12-18T03:47:53;-5.90;99.90
65692;DHT22;52411;52.716;6.696;2022-12-18T03:55:53;-6.20;99.90
65692;DHT22;52411;52.716;6.696;2022-12-18T03:58:25;-6.30;99.90
65692;DHT22;52411;52.716;6.696;2022-12-18T04:00:55;-6.30;99.90
65692;DHT22;52411;52.716;6.696;2022-12-18T04:03:23;-6.40;99.90
65692;DHT22;52411;52.716;6.696;2022-12-18T04:05:51;-6.50;99.90
65692;DHT22;52411;52.716;6.696;2022-12-18T04:08:18;-6.50;99.90
65692;DHT22;52411;52.716;6.696;2022-12-18T04:10:44;-6.40;99.90
65692;DHT22;52411;52.716;6.696;2022-12-18T04:13:09;-6.40;99.90
65692;DHT22;52411;52.716;6.696;2022-12-18T04:15:36;-6.40;99.90
65692;DHT22;52411;52.716;6.696;2022-12-18T04:18:02;-6.40;99.90
65692;DHT22;52411;52.716;6.696;2022-12-18T04:20:27;-6.30;99.90
65692;DHT22;52411;52.716;6.696;2022-12-18T04:22:53;-6.30;99.90
65692;DHT22;52411;52.716;6.696;2022-12-18T04:25:19;-6.30;99.90
65692;DHT22;52411;52.716;6.696;2022-12-18T04:27:44;-6.30;99.90
65692;DHT22;52411;52.716;6.696;2022-12-18T04:30:10;-6.30;99.90
65692;DHT22;52411;52.716;6.696;2022-12-18T04:32:36;-6.20;99.90
65692;DHT22;52411;52.716;6.696;2022-12-18T04:35:02;-6.20;99.90
65692;DHT22;52411;52.716;6.696;2022-12-18T04:37:29;-6.20;99.90
65692;DHT22;52411;52.716;6.696;2022-12-18T04:39:55;-6.20;99.90
65692;DHT22;52411;52.716;6.696;2022-12-18T04:42:21;-6.20;99.90
65692;DHT22;52411;52.716;6.696;2022-12-18T04:44:46;-6.20;99.90
65692;DHT22;52411;52.716;6.696;2022-12-18T04:47:12;-6.20;99.90
65692;DHT22;52411;52.716;6.696;2022-12-18T04:49:37;-6.10;99.90
65692;DHT22;52411;52.716;6.696;2022-12-18T04:52:03;-6.10;99.90
65692;DHT22;52411;52.716;6.696;2022-12-18T04:54:29;-6.30;99.90
65692;DHT22;52411;52.716;6.696;2022-12-18T04:56:54;-6.40;99.90
65692;DHT22;52411;52.716;6.696;2022-12-18T04:59:20;-6.50;99.90
65692;DHT22;52411;52.716;6.696;2022-12-18T05:01:45;-6.60;99.90
65692;DHT22;52411;52.716;6.696;2022-12-18T05:04:11;-6.50;99.90
65692;DHT22;52411;52.716;6.696;2022-12-18T05:06:37;-6.50;99.90
65692;DHT22;52411;52.716;6.696;2022-12-18T05:09:02;-6.40;99.90
65692;DHT22;52411;52.716;6.696;2022-12-18T05:11:28;-6.40;99.90
65692;DHT22;52411;52.716;6.696;2022-12-18T05:13:57;-6.40;99.90
65692;DHT22;52411;52.716;6.696;2022-12-18T05:16:22;-6.50;99.90
65692;DHT22;52411;52.716;6.696;2022-12-18T05:18:48;-6.50;99.90
65692;DHT22;52411;52.716;6.696;2022-12-18T05:21:13;-6.40;99.90
65692;DHT22;52411;52.716;6.696;2022-12-18T05:23:39;-6.40;99.90
65692;DHT22;52411;52.716;6.696;2022-12-18T05:26:06;-6.30;99.90
65692;DHT22;52411;52.716;6.696;2022-12-18T05:28:33;-6.30;99.90
65692;DHT22;52411;52.716;6.696;2022-12-18T05:31:01;-6.30;99.90
65692;DHT22;52411;52.716;6.696;2022-12-18T05:33:30;-6.50;99.90
65692;DHT22;52411;52.716;6.696;2022-12-18T05:35:58;-6.50;99.90
65692;DHT22;52411;52.716;6.696;2022-12-18T05:38:25;-6.50;99.90
65692;DHT22;52411;52.716;6.696;2022-12-18T05:40:52;-6.50;99.90
65692;DHT22;52411;52.716;6.696;2022-12-18T05:43:19;-6.60;99.90
65692;DHT22;52411;52.716;6.696;2022-12-18T05:45:45;-6.70;99.90
65692;DHT22;52411;52.716;6.696;2022-12-18T05:48:14;-6.70;99.90
65692;DHT22;52411;52.716;6.696;2022-12-18T05:50:41;-6.70;99.90
65692;DHT22;52411;52.716;6.696;2022-12-18T05:53:07;-6.80;99.90
65692;DHT22;52411;52.716;6.696;2022-12-18T05:55:38;-6.80;99.90
65692;DHT22;52411;52.716;6.696;2022-12-18T05:58:05;-6.80;99.90
65692;DHT22;52411;52.716;6.696;2022-12-18T06:00:35;-6.90;99.90
65692;DHT22;52411;52.716;6.696;2022-12-18T06:03:01;-6.90;99.90
65692;DHT22;52411;52.716;6.696;2022-12-18T06:05:27;-6.90;99.90
65692;DHT22;52411;52.716;6.696;2022-12-18T06:07:53;-6.90;99.90
65692;DHT22;52411;52.716;6.696;2022-12-18T06:10:18;-6.90;99.90
65692;DHT22;52411;52.716;6.696;2022-12-18T06:12:44;-6.90;99.90
65692;DHT22;52411;52.716;6.696;2022-12-18T06:15:10;-6.90;99.90
65692;DHT22;52411;52.716;6.696;2022-12-18T06:17:36;-6.80;99.90
65692;DHT22;52411;52.716;6.696;2022-12-18T06:20:02;-6.80;99.90
65692;DHT22;52411;52.716;6.696;2022-12-18T06:22:30;-6.80;99.90
65692;DHT22;52411;52.716;6.696;2022-12-18T06:24:57;-6.80;99.90
65692;DHT22;52411;52.716;6.696;2022-12-18T06:27:22;-6.80;99.90
65692;DHT22;52411;52.716;6.696;2022-12-18T06:29:48;-6.70;99.90
65692;DHT22;52411;52.716;6.696;2022-12-18T06:32:13;-6.70;99.90
65692;DHT22;52411;52.716;6.696;2022-12-18T06:34:39;-6.60;99.90
65692;DHT22;52411;52.716;6.696;2022-12-18T06:37:05;-6.70;99.90
65692;DHT22;52411;52.716;6.696;2022-12-18T06:39:30;-6.70;99.90
65692;DHT22;52411;52.716;6.696;2022-12-18T06:41:56;-6.70;99.90
65692;DHT22;52411;52.716;6.696;2022-12-18T06:44:22;-6.60;99.90
65692;DHT22;52411;52.716;6.696;2022-12-18T06:46:47;-6.60;99.90
65692;DHT22;52411;52.716;6.696;2022-12-18T06:49:13;-6.60;99.90
65692;DHT22;52411;52.716;6.696;2022-12-18T06:51:38;-6.60;99.90
65692;DHT22;52411;52.716;6.696;2022-12-18T06:54:04;-6.70;99.90
65692;DHT22;52411;52.716;6.696;2022-12-18T06:56:30;-6.60;99.90
65692;DHT22;52411;52.716;6.696;2022-12-18T06:58:56;-6.60;99.90
65692;DHT22;52411;52.716;6.696;2022-12-18T07:01:22;-6.60;99.90
65692;DHT22;52411;52.716;6.696;2022-12-18T07:03:55;-6.60;99.90
65692;DHT22;52411;52.716;6.696;2022-12-18T07:06:23;-6.60;99.90
65692;DHT22;52411;52.716;6.696;2022-12-18T07:08:50;-6.60;99.90
65692;DHT22;52411;52.716;6.696;2022-12-18T07:11:17;-6.60;99.90
65692;DHT22;52411;52.716;6.696;2022-12-18T07:13:43;-6.60;99.90
65692;DHT22;52411;52.716;6.696;2022-12-18T07:16:15;-6.60;99.90
65692;DHT22;52411;52.716;6.696;2022-12-18T07:18:40;-6.70;99.90
65692;DHT22;52411;52.716;6.696;2022-12-18T07:21:08;-6.60;99.90
65692;DHT22;52411;52.716;6.696;2022-12-18T07:23:35;-6.60;99.90
65692;DHT22;52411;52.716;6.696;2022-12-18T07:26:05;-6.50;99.90
65692;DHT22;52411;52.716;6.696;2022-12-18T07:28:32;-6.50;99.90
65692;DHT22;52411;52.716;6.696;2022-12-18T07:31:02;-6.50;99.90
65692;DHT22;52411;52.716;6.696;2022-12-18T07:33:27;-6.50;99.90
65692;DHT22;52411;52.716;6.696;2022-12-18T07:35:53;-6.50;99.90
65692;DHT22;52411;52.716;6.696;2022-12-18T07:38:19;-6.40;99.90
65692;DHT22;52411;52.716;6.696;2022-12-18T07:40:44;-6.40;99.90
65692;DHT22;52411;52.716;6.696;2022-12-18T07:43:10;-6.40;99.90
65692;DHT22;52411;52.716;6.696;2022-12-18T07:45:35;-6.40;99.90
65692;DHT22;52411;52.716;6.696;2022-12-18T07:48:01;-6.30;99.90
65692;DHT22;52411;52.716;6.696;2022-12-18T07:50:27;-6.20;99.90
65692;DHT22;52411;52.716;6.696;2022-12-18T07:52:52;-6.20;99.90
65692;DHT22;52411;52.716;6.696;2022-12-18T07:55:18;-6.10;99.90
65692;DHT22;52411;52.716;6.696;2022-12-18T07:57:43;-6.10;99.90
65692;DHT22;52411;52.716;6.696;2022-12-18T08:00:10;-6.10;99.90
65692;DHT22;52411;52.716;6.696;2022-12-18T08:02:48;-6.10;99.90
65692;DHT22;52411;52.716;6.696;2022-12-18T08:05:13;-6.00;99.90
65692;DHT22;52411;52.716;6.696;2022-12-18T08:07:39;-6.00;99.90
65692;DHT22;52411;52.716;6.696;2022-12-18T08:10:05;-6.00;99.90
65692;DHT22;52411;52.716;6.696;2022-12-18T08:12:31;-5.90;99.90
65692;DHT22;52411;52.716;6.696;2022-12-18T08:14:57;-5.90;99.90
65692;DHT22;52411;52.716;6.696;2022-12-18T08:17:23;-5.80;99.90
65692;DHT22;52411;52.716;6.696;2022-12-18T08:19:48;-5.80;99.90
65692;DHT22;52411;52.716;6.696;2022-12-18T08:22:14;-5.70;99.90
65692;DHT22;52411;52.716;6.696;2022-12-18T08:24:39;-5.70;99.90
65692;DHT22;52411;52.716;6.696;2022-12-18T08:30:12;-5.50;99.90
65692;DHT22;52411;52.716;6.696;2022-12-18T08:32:38;-5.50;99.90
65692;DHT22;52411;52.716;6.696;2022-12-18T08:35:03;-5.40;99.90
65692;DHT22;52411;52.716;6.696;2022-12-18T08:37:29;-5.40;99.90
65692;DHT22;52411;52.716;6.696;2022-12-18T08:39:55;-5.30;99.90
65692;DHT22;52411;52.716;6.696;2022-12-18T08:42:20;-5.30;99.90
65692;DHT22;52411;52.716;6.696;2022-12-18T08:45:05;-5.20;99.90
65692;DHT22;52411;52.716;6.696;2022-12-18T08:47:30;-5.20;99.90
65692;DHT22;52411;52.716;6.696;2022-12-18T08:49:56;-5.10;99.90
65692;DHT22;52411;52.716;6.696;2022-12-18T08:52:22;-5.10;99.90
65692;DHT22;52411;52.716;6.696;2022-12-18T08:57:24;-5.10;99.90
65692;DHT22;52411;52.716;6.696;2022-12-18T08:59:50;-5.00;99.90
65692;DHT22;52411;52.716;6.696;2022-12-18T09:02:15;-4.90;99.90
65692;DHT22;52411;52.716;6.696;2022-12-18T09:04:41;-4.90;99.90
65692;DHT22;52411;52.716;6.696;2022-12-18T09:07:07;-4.80;99.90
65692;DHT22;52411;52.716;6.696;2022-12-18T09:09:32;-4.80;99.90
65692;DHT22;52411;52.716;6.696;2022-12-18T09:11:58;-4.70;99.90
65692;DHT22;52411;52.716;6.696;2022-12-18T09:14:23;-4.60;99.90
65692;DHT22;52411;52.716;6.696;2022-12-18T09:16:49;-4.60;99.90
65692;DHT22;52411;52.716;6.696;2022-12-18T09:19:14;-4.40;99.90
65692;DHT22;52411;52.716;6.696;2022-12-18T09:24:24;-4.40;99.90
65692;DHT22;52411;52.716;6.696;2022-12-18T09:26:53;-4.20;99.90
65692;DHT22;52411;52.716;6.696;2022-12-18T09:29:20;-4.10;99.90
65692;DHT22;52411;52.716;6.696;2022-12-18T09:31:46;-4.00;99.90
65692;DHT22;52411;52.716;6.696;2022-12-18T09:34:12;-3.90;99.90
65692;DHT22;52411;52.716;6.696;2022-12-18T09:36:38;-3.80;99.90
65692;DHT22;52411;52.716;6.696;2022-12-18T09:39:03;-3.70;99.90
65692;DHT22;52411;52.716;6.696;2022-12-18T09:44:23;-3.60;99.90
65692;DHT22;52411;52.716;6.696;2022-12-18T09:50:06;-3.40;99.90
65692;DHT22;52411;52.716;6.696;2022-12-18T09:52:48;-3.30;99.90
65692;DHT22;52411;52.716;6.696;2022-12-18T09:58:02;-3.20;99.90
65692;DHT22;52411;52.716;6.696;2022-12-18T10:00:30;-3.10;99.90
65692;DHT22;52411;52.716;6.696;2022-12-18T10:03:03;-3.00;99.90
65692;DHT22;52411;52.716;6.696;2022-12-18T10:08:58;-2.90;99.90
65692;DHT22;52411;52.716;6.696;2022-12-18T10:19:20;-2.70;99.90
65692;DHT22;52411;52.716;6.696;2022-12-18T10:22:11;-2.70;99.90
65692;DHT22;52411;52.716;6.696;2022-12-18T10:27:13;-2.60;99.90
65692;DHT22;52411;52.716;6.696;2022-12-18T10:29:41;-2.60;99.90
65692;DHT22;52411;52.716;6.696;2022-12-18T10:32:09;-2.60;99.90
65692;DHT22;52411;52.716;6.696;2022-12-18T10:34:39;-2.60;99.90
65692;DHT22;52411;52.716;6.696;2022-12-18T10:37:28;-2.50;99.90
65692;DHT22;52411;52.716;6.696;2022-12-18T10:40:10;-2.50;99.90
65692;DHT22;52411;52.716;6.696;2022-12-18T10:42:37;-2.40;99.90
65692;DHT22;52411;52.716;6.696;2022-12-18T10:45:14;-2.40;99.90
65692;DHT22;52411;52.716;6.696;2022-12-18T10:47:48;-2.30;99.90
65692;DHT22;52411;52.716;6.696;2022-12-18T10:50:29;-2.20;99.90
65692;DHT22;52411;52.716;6.696;2022-12-18T10:52:59;-2.10;99.90
65692;DHT22;52411;52.716;6.696;2022-12-18T10:55:34;-2.00;99.90
65692;DHT22;52411;52.716;6.696;2022-12-18T10:58:26;-2.00;99.90
65692;DHT22;52411;52.716;6.696;2022-12-18T11:06:24;-1.80;99.90
65692;DHT22;52411;52.716;6.696;2022-12-18T11:09:34;-1.70;99.90
65692;DHT22;52411;52.716;6.696;2022-12-18T11:12:14;-1.60;99.90
65692;DHT22;52411;52.716;6.696;2022-12-18T11:14:47;-1.60;99.90
65692;DHT22;52411;52.716;6.696;2022-12-18T11:17:40;-1.60;99.90
65692;DHT22;52411;52.716;6.696;2022-12-18T11:20:20;-1.50;99.90
65692;DHT22;52411;52.716;6.696;2022-12-18T11:23:10;-1.40;99.90
65692;DHT22;52411;52.716;6.696;2022-12-18T11:25:37;-1.40;99.90
65692;DHT22;52411;52.716;6.696;2022-12-18T11:30:41;-1.30;99.90
65692;DHT22;52411;52.716;6.696;2022-12-18T11:33:13;-1.30;99.90
65692;DHT22;52411;52.716;6.696;2022-12-18T11:35:47;-1.20;99.90
65692;DHT22;52411;52.716;6.696;2022-12-18T11:38:24;-1.20;99.90
65692;DHT22;52411;52.716;6.696;2022-12-18T11:41:16;-1.10;99.90
65692;DHT22;52411;52.716;6.696;2022-12-18T11:43:59;-1.10;99.90
65692;DHT22;52411;52.716;6.696;2022-12-18T11:46:37;-1.10;99.90
65692;DHT22;52411;52.716;6.696;2022-12-18T11:49:08;-1.00;99.90
65692;DHT22;52411;52.716;6.696;2022-12-18T11:52:12;-1.00;99.90
65692;DHT22;52411;52.716;6.696;2022-12-18T11:59:58;-0.90;99.90
65692;DHT22;52411;52.716;6.696;2022-12-18T12:02:30;-0.90;99.90
65692;DHT22;52411;52.716;6.696;2022-12-18T12:11:02;-0.80;99.90
65692;DHT22;52411;52.716;6.696;2022-12-18T12:13:34;-0.80;99.90
65692;DHT22;52411;52.716;6.696;2022-12-18T12:21:40;-0.70;99.90
65692;DHT22;52411;52.716;6.696;2022-12-18T12:40:54;-0.60;99.90
65692;DHT22;52411;52.716;6.696;2022-12-18T12:46:07;-0.50;99.90
65692;DHT22;52411;52.716;6.696;2022-12-18T12:48:34;-0.40;99.90
65692;DHT22;52411;52.716;6.696;2022-12-18T12:51:07;-0.40;99.90
65692;DHT22;52411;52.716;6.696;2022-12-18T12:53:36;-0.30;99.90
65692;DHT22;52411;52.716;6.696;2022-12-18T12:56:03;-0.30;99.90
65692;DHT22;52411;52.716;6.696;2022-12-18T13:12:16;-0.30;99.90
65692;DHT22;52411;52.716;6.696;2022-12-18T13:15:40;-0.30;99.90
65692;DHT22;52411;52.716;6.696;2022-12-18T13:20:37;-0.30;99.90
65692;DHT22;52411;52.716;6.696;2022-12-18T13:25:59;-0.20;99.90
65692;DHT22;52411;52.716;6.696;2022-12-18T13:34:23;-0.10;99.90
65692;DHT22;52411;52.716;6.696;2022-12-18T13:37:36;-0.10;99.90
65692;DHT22;52411;52.716;6.696;2022-12-18T13:40:53;-0.10;99.90
65692;DHT22;52411;52.716;6.696;2022-12-18T13:45:49;-0.10;99.90
65692;DHT22;52411;52.716;6.696;2022-12-18T13:48:23;-0.10;99.90
65692;DHT22;52411;52.716;6.696;2022-12-18T13:50:58;-0.10;99.90
65692;DHT22;52411;52.716;6.696;2022-12-18T13:53:28;-0.10;99.90
65692;DHT22;52411;52.716;6.696;2022-12-18T13:55:54;-0.10;99.90
65692;DHT22;52411;52.716;6.696;2022-12-18T13:58:20;-0.20;99.90
65692;DHT22;52411;52.716;6.696;2022-12-18T14:00:46;-0.20;99.90
65692;DHT22;52411;52.716;6.696;2022-12-18T14:03:26;-0.20;99.90
65692;DHT22;52411;52.716;6.696;2022-12-18T14:05:58;-0.20;99.90
65692;DHT22;52411;52.716;6.696;2022-12-18T14:08:29;-0.20;99.90
65692;DHT22;52411;52.716;6.696;2022-12-18T14:10:56;-0.30;99.90
65692;DHT22;52411;52.716;6.696;2022-12-18T14:13:29;-0.30;99.90
65692;DHT22;52411;52.716;6.696;2022-12-18T14:15:56;-0.30;99.90
65692;DHT22;52411;52.716;6.696;2022-12-18T14:21:27;-0.30;99.90
65692;DHT22;52411;52.716;6.696;2022-12-18T14:26:34;-0.30;99.90
65692;DHT22;52411;52.716;6.696;2022-12-18T14:32:23;-0.40;99.90
65692;DHT22;52411;52.716;6.696;2022-12-18T14:34:50;-0.40;99.90
65692;DHT22;52411;52.716;6.696;2022-12-18T14:37:20;-0.40;99.90
65692;DHT22;52411;52.716;6.696;2022-12-18T14:39:56;-0.40;99.90
65692;DHT22;52411;52.716;6.696;2022-12-18T14:42:23;-0.40;99.90
65692;DHT22;52411;52.716;6.696;2022-12-18T14:47:58;-0.40;99.90
65692;DHT22;52411;52.716;6.696;2022-12-18T14:50:24;-0.50;99.90
65692;DHT22;52411;52.716;6.696;2022-12-18T14:53:02;-0.50;99.90
65692;DHT22;52411;52.716;6.696;2022-12-18T14:55:28;-0.50;99.90
65692;DHT22;52411;52.716;6.696;2022-12-18T14:57:55;-0.50;99.90
65692;DHT22;52411;52.716;6.696;2022-12-18T15:00:23;-0.50;99.90
65692;DHT22;52411;52.716;6.696;2022-12-18T15:02:56;-0.50;99.90
65692;DHT22;52411;52.716;6.696;2022-12-18T15:05:28;-0.60;99.90
65692;DHT22;52411;52.716;6.696;2022-12-18T15:07:55;-0.60;99.90
65692;DHT22;52411;52.716;6.696;2022-12-18T15:10:29;-0.60;99.90
65692;DHT22;52411;52.716;6.696;2022-12-18T15:20:52;-0.70;99.90
65692;DHT22;52411;52.716;6.696;2022-12-18T15:26:16;-0.70;99.90
65692;DHT22;52411;52.716;6.696;2022-12-18T15:33:43;-0.70;99.90
65692;DHT22;52411;52.716;6.696;2022-12-18T15:36:16;-0.70;99.90
65692;DHT22;52411;52.716;6.696;2022-12-18T15:38:49;-0.70;99.90
65692;DHT22;52411;52.716;6.696;2022-12-18T15:41:17;-0.70;99.90
65692;DHT22;52411;52.716;6.696;2022-12-18T15:43:43;-0.70;99.90
65692;DHT22;52411;52.716;6.696;2022-12-18T15:46:16;-0.70;99.90
65692;DHT22;52411;52.716;6.696;2022-12-18T15:48:47;-0.80;99.90
65692;DHT22;52411;52.716;6.696;2022-12-18T15:51:45;-0.70;99.90
65692;DHT22;52411;52.716;6.696;2022-12-18T15:54:14;-0.70;99.90
65692;DHT22;52411;52.716;6.696;2022-12-18T15:56:41;-0.80;99.90
65692;DHT22;52411;52.716;6.696;2022-12-18T15:59:26;-0.70;99.90
65692;DHT22;52411;52.716;6.696;2022-12-18T16:01:52;-0.70;99.90
65692;DHT22;52411;52.716;6.696;2022-12-18T16:04:20;-0.70;99.90
65692;DHT22;52411;52.716;6.696;2022-12-18T16:06:46;-0.70;99.90
65692;DHT22;52411;52.716;6.696;2022-12-18T16:09:12;-0.70;99.90
65692;DHT22;52411;52.716;6.696;2022-12-18T16:11:39;-0.70;99.90
65692;DHT22;52411;52.716;6.696;2022-12-18T16:16:50;-0.70;99.90
65692;DHT22;52411;52.716;6.696;2022-12-18T16:19:16;-0.70;99.90
65692;DHT22;52411;52.716;6.696;2022-12-18T16:21:43;-0.70;99.90
65692;DHT22;52411;52.716;6.696;2022-12-18T16:24:21;-0.70;99.90
65692;DHT22;52411;52.716;6.696;2022-12-18T16:26:48;-0.70;99.90
65692;DHT22;52411;52.716;6.696;2022-12-18T16:29:14;-0.70;99.90
65692;DHT22;52411;52.716;6.696;2022-12-18T16:31:40;-0.70;99.90
65692;DHT22;52411;52.716;6.696;2022-12-18T16:34:26;-0.70;99.90
65692;DHT22;52411;52.716;6.696;2022-12-18T16:36:58;-0.70;99.90
65692;DHT22;52411;52.716;6.696;2022-12-18T16:39:25;-0.70;99.90
65692;DHT22;52411;52.716;6.696;2022-12-18T16:41:51;-0.70;99.90
65692;DHT22;52411;52.716;6.696;2022-12-18T16:44:17;-0.70;99.90
65692;DHT22;52411;52.716;6.696;2022-12-18T16:46:43;-0.70;99.90
65692;DHT22;52411;52.716;6.696;2022-12-18T16:49:11;-0.70;99.90
65692;DHT22;52411;52.716;6.696;2022-12-18T16:51:37;-0.60;99.90
65692;DHT22;52411;52.716;6.696;2022-12-18T16:54:03;-0.60;99.90
65692;DHT22;52411;52.716;6.696;2022-12-18T16:56:29;-0.60;99.90
65692;DHT22;52411;52.716;6.696;2022-12-18T16:58:57;-0.60;99.90
65692;DHT22;52411;52.716;6.696;2022-12-18T17:01:24;-0.60;99.90
65692;DHT22;52411;52.716;6.696;2022-12-18T17:03:54;-0.60;99.90
65692;DHT22;52411;52.716;6.696;2022-12-18T17:06:21;-0.60;99.90
65692;DHT22;52411;52.716;6.696;2022-12-18T17:08:47;-0.60;99.90
65692;DHT22;52411;52.716;6.696;2022-12-18T17:11:13;-0.60;99.90
65692;DHT22;52411;52.716;6.696;2022-12-18T17:13:38;-0.60;99.90
65692;DHT22;52411;52.716;6.696;2022-12-18T17:16:08;-0.60;99.90
65692;DHT22;52411;52.716;6.696;2022-12-18T17:18:34;-0.60;99.90
65692;DHT22;52411;52.716;6.696;2022-12-18T17:21:00;-0.60;99.90
65692;DHT22;52411;52.716;6.696;2022-12-18T17:23:27;-0.50;99.90
65692;DHT22;52411;52.716;6.696;2022-12-18T17:25:55;-0.50;99.90
65692;DHT22;52411;52.716;6.696;2022-12-18T17:28:22;-0.50;99.90
65692;DHT22;52411;52.716;6.696;2022-12-18T17:30:48;-0.50;99.90
65692;DHT22;52411;52.716;6.696;2022-12-18T17:33:13;-0.60;99.90
65692;DHT22;52411;52.716;6.696;2022-12-18T17:35:39;-0.50;99.90
65692;DHT22;52411;52.716;6.696;2022-12-18T17:38:05;-0.50;99.90
65692;DHT22;52411;52.716;6.696;2022-12-18T17:40:33;-0.50;99.90
65692;DHT22;52411;52.716;6.696;2022-12-18T17:42:59;-0.50;99.90
65692;DHT22;52411;52.716;6.696;2022-12-18T17:45:25;-0.50;99.90
65692;DHT22;52411;52.716;6.696;2022-12-18T17:47:50;-0.50;99.90
65692;DHT22;52411;52.716;6.696;2022-12-18T17:50:16;-0.40;99.90
65692;DHT22;52411;52.716;6.696;2022-12-18T17:52:42;-0.50;99.90
65692;DHT22;52411;52.716;6.696;2022-12-18T17:55:08;-0.40;99.90
65692;DHT22;52411;52.716;6.696;2022-12-18T17:57:34;-0.40;99.90
65692;DHT22;52411;52.716;6.696;2022-12-18T18:00:02;-0.40;99.90
65692;DHT22;52411;52.716;6.696;2022-12-18T18:02:28;-0.40;99.90
65692;DHT22;52411;52.716;6.696;2022-12-18T18:04:54;-0.40;99.90
65692;DHT22;52411;52.716;6.696;2022-12-18T18:07:20;-0.40;99.90
65692;DHT22;52411;52.716;6.696;2022-12-18T18:09:45;-0.40;99.90
65692;DHT22;52411;52.716;6.696;2022-12-18T18:12:11;-0.40;99.90